createdAt,value
2019-05-25T04:00:38.688Z,5.10
2019-05-25T04:02:38.666Z,16.70
2019-05-25T04:04:38.650Z,14.70
2019-05-25T04:06:38.614Z,14.80
2019-05-25T04:08:38.594Z,15.40
2019-05-25T04:10:39.072Z,14.90
2019-05-25T04:12:38.569Z,15.90
2019-05-25T04:14:38.546Z,14.70
2019-05-25T04:16:38.549Z,16.20
2019-05-25T04:18:38.482Z,16.10
2019-05-25T04:20:38.500Z,14.70
2019-05-25T04:22:38.488Z,13.70
2019-05-25T04:24:38.468Z,19.00
2019-05-25T04:26:38.449Z,15.80
2019-05-25T04:28:38.384Z,15.00
2019-05-25T04:30:38.362Z,16.60
2019-05-25T04:32:38.361Z,14.50
2019-05-25T04:34:38.311Z,15.40
2019-05-25T04:36:38.304Z,13.80
2019-05-25T04:38:38.282Z,14.20
2019-05-25T04:40:38.254Z,14.90
2019-05-25T04:42:38.279Z,14.00
2019-05-25T04:44:38.208Z,13.50
2019-05-25T04:46:38.188Z,15.00
2019-05-25T04:48:38.165Z,15.00
2019-05-25T04:50:38.142Z,17.60
2019-05-25T04:52:41.114Z,15.90
2019-05-25T04:54:38.105Z,13.50
2019-05-25T04:56:39.826Z,14.30
2019-05-25T04:58:38.054Z,13.20
2019-05-25T05:00:38.094Z,15.30
2019-05-25T05:02:38.004Z,16.10
2019-05-25T05:04:37.977Z,12.10
2019-05-25T05:06:38.032Z,15.30
2019-05-25T05:08:37.967Z,12.90
2019-05-25T05:10:37.919Z,13.20
2019-05-25T05:12:37.947Z,13.70
2019-05-25T05:14:37.875Z,13.90
2019-05-25T05:16:37.868Z,12.60
2019-05-25T05:18:37.842Z,13.50
2019-05-25T05:20:37.806Z,12.70
2019-05-25T05:22:37.822Z,12.30
2019-05-25T05:24:37.783Z,11.40
2019-05-25T05:26:37.744Z,11.80
2019-05-25T05:28:37.768Z,10.90
2019-05-25T05:30:37.759Z,10.40
2019-05-25T05:32:37.671Z,10.90
2019-05-25T05:34:37.697Z,11.40
2019-05-25T05:36:37.671Z,10.80
2019-05-25T05:38:37.632Z,7.90
2019-05-25T05:40:37.645Z,9.10
2019-05-25T05:42:37.602Z,7.60
2019-05-25T05:44:37.559Z,8.40
2019-05-25T05:46:37.541Z,7.30
2019-05-25T05:48:37.498Z,8.30
2019-05-25T05:50:37.503Z,10.40
2019-05-25T05:52:37.466Z,9.40
2019-05-25T05:54:37.450Z,8.00
2019-05-25T05:56:37.441Z,8.00
2019-05-25T05:58:37.419Z,12.20
2019-05-25T06:00:37.392Z,9.60
2019-05-25T06:02:37.369Z,11.10
2019-05-25T06:04:37.331Z,11.40
2019-05-25T06:06:37.355Z,8.60
2019-05-25T06:08:37.362Z,9.30
2019-05-25T06:10:37.268Z,13.20
2019-05-25T06:12:37.253Z,12.20
2019-05-25T06:14:37.238Z,10.80
2019-05-25T06:16:37.209Z,14.20
2019-05-25T06:18:37.208Z,11.10
2019-05-25T06:20:37.161Z,11.10
2019-05-25T06:22:37.136Z,10.60
2019-05-25T06:24:37.147Z,11.10
2019-05-25T06:26:37.089Z,12.40
2019-05-25T06:28:37.078Z,11.70
2019-05-25T06:30:37.062Z,10.80
2019-05-25T06:32:37.043Z,9.40
2019-05-25T06:34:37.032Z,13.30
2019-05-25T06:36:36.999Z,14.00
2019-05-25T06:38:36.993Z,15.20
2019-05-25T06:40:36.977Z,12.80
2019-05-25T06:42:36.944Z,12.10
2019-05-25T06:44:36.898Z,13.70
2019-05-25T06:46:39.709Z,12.70
2019-05-25T06:48:43.892Z,12.20
2019-05-25T06:50:36.832Z,10.10
2019-05-25T06:52:36.823Z,9.10
2019-05-25T06:54:36.790Z,11.90
2019-05-25T06:56:36.787Z,12.00
2019-05-25T06:58:36.743Z,11.60
2019-05-25T07:00:36.723Z,12.00
2019-05-25T07:02:36.728Z,11.00
2019-05-25T07:04:36.704Z,12.90
2019-05-25T07:06:36.677Z,13.20
2019-05-25T07:08:36.650Z,9.80
2019-05-25T07:10:36.616Z,10.60
2019-05-25T07:12:36.608Z,10.10
2019-05-25T07:14:36.582Z,12.00
2019-05-25T07:16:36.557Z,9.90
2019-05-25T07:18:36.545Z,14.10
2019-05-25T07:20:36.513Z,11.20
2019-05-25T07:22:36.484Z,11.00
2019-05-25T07:24:36.492Z,11.80
2019-05-25T07:26:36.447Z,10.80
2019-05-25T07:28:36.441Z,11.00
2019-05-25T07:30:36.424Z,10.70
2019-05-25T07:32:36.396Z,12.60
2019-05-25T07:34:36.356Z,9.90
2019-05-25T07:36:36.348Z,12.10
2019-05-25T07:38:36.331Z,9.70
2019-05-25T07:40:36.296Z,14.50
2019-05-25T07:42:36.291Z,9.70
2019-05-25T07:44:36.263Z,12.80
2019-05-25T07:46:36.237Z,13.50
2019-05-25T07:48:36.210Z,10.90
2019-05-25T07:50:36.211Z,13.70
2019-05-25T07:52:36.175Z,13.40
2019-05-25T07:54:36.151Z,14.50
2019-05-25T07:56:36.131Z,14.60
2019-05-25T07:58:36.124Z,15.80
2019-05-25T08:00:36.085Z,17.60
2019-05-25T08:02:36.060Z,14.50
2019-05-25T08:04:36.041Z,14.50
2019-05-25T08:06:36.037Z,13.60
2019-05-25T08:08:35.994Z,13.40
2019-05-25T08:10:36.009Z,13.10
2019-05-25T08:12:35.944Z,15.30
2019-05-25T08:14:35.937Z,13.20
2019-05-25T08:16:35.927Z,14.80
2019-05-25T08:18:35.883Z,15.60
2019-05-25T08:20:35.903Z,13.60
2019-05-25T08:22:35.839Z,16.20
2019-05-25T08:24:35.821Z,18.80
2019-05-25T08:26:35.807Z,15.10
2019-05-25T08:28:35.779Z,14.90
2019-05-25T08:30:35.768Z,15.20
2019-05-25T08:32:35.731Z,18.70
2019-05-25T08:34:35.729Z,17.60
2019-05-25T08:36:35.708Z,18.70
2019-05-25T08:38:35.664Z,20.50
2019-05-25T08:40:35.667Z,31.80
2019-05-25T08:42:35.644Z,42.40
2019-05-25T08:44:35.601Z,35.20
2019-05-25T08:46:35.583Z,20.40
2019-05-25T08:48:35.572Z,19.80
2019-05-25T08:50:38.616Z,19.60
2019-05-25T08:52:35.507Z,19.80
2019-05-25T08:54:35.495Z,18.10
2019-05-25T08:56:35.491Z,17.80
2019-05-25T08:58:47.981Z,17.80
2019-05-25T09:00:36.440Z,20.00
2019-05-25T09:02:35.405Z,18.30
2019-05-25T09:04:35.402Z,17.10
2019-05-25T09:06:35.357Z,16.90
2019-05-25T09:08:35.352Z,16.20
2019-05-25T09:10:35.337Z,16.80
2019-05-25T09:12:35.296Z,19.30
2019-05-25T09:14:35.287Z,18.60
2019-05-25T09:16:35.260Z,18.00
2019-05-25T09:18:35.238Z,18.80
2019-05-25T09:20:35.553Z,14.80
2019-05-25T09:22:35.255Z,17.80
2019-05-25T09:24:35.170Z,18.20
2019-05-25T09:26:35.166Z,17.20
2019-05-25T09:28:35.122Z,15.80
2019-05-25T09:30:35.101Z,17.10
2019-05-25T09:32:35.104Z,17.80
2019-05-25T09:34:35.062Z,15.60
2019-05-25T09:36:35.033Z,18.50
2019-05-25T09:38:35.029Z,16.30
2019-05-25T09:40:34.989Z,18.30
2019-05-25T09:42:34.968Z,16.50
2019-05-25T09:44:34.958Z,17.80
2019-05-25T09:46:34.932Z,16.20
2019-05-25T09:48:38.039Z,15.90
2019-05-25T09:50:35.135Z,16.20
2019-05-25T09:52:34.860Z,15.90
2019-05-25T09:54:34.837Z,16.40
2019-05-25T09:56:34.826Z,15.60
2019-05-25T09:58:34.804Z,15.40
2019-05-25T10:00:39.758Z,14.20
2019-05-25T10:02:35.755Z,19.00
2019-05-25T10:04:34.748Z,14.60
2019-05-25T10:06:34.740Z,15.30
2019-05-25T10:08:34.686Z,14.00
2019-05-25T10:10:34.674Z,14.60
2019-05-25T10:12:34.656Z,16.50
2019-05-25T10:14:34.623Z,14.40
2019-05-25T10:16:34.599Z,14.40
2019-05-25T10:18:34.589Z,15.30
2019-05-25T10:20:34.556Z,15.80
2019-05-25T10:22:34.551Z,15.00
2019-05-25T10:24:34.520Z,14.20
2019-05-25T10:26:34.499Z,14.70
2019-05-25T10:28:34.483Z,14.60
2019-05-25T10:30:34.459Z,15.20
2019-05-25T10:32:34.429Z,15.30
2019-05-25T10:34:34.418Z,15.00
2019-05-25T10:36:34.389Z,14.30
2019-05-25T10:38:34.377Z,15.70
2019-05-25T10:40:34.365Z,16.20
2019-05-25T10:42:34.323Z,14.30
2019-05-25T10:44:34.321Z,14.40
2019-05-25T10:46:34.277Z,16.00
2019-05-25T10:48:34.277Z,15.10
2019-05-25T10:50:34.254Z,13.80
2019-05-25T10:52:34.216Z,13.70
2019-05-25T10:54:34.196Z,13.40
2019-05-25T10:56:34.177Z,14.20
2019-05-25T10:58:34.154Z,11.50
2019-05-25T11:00:34.131Z,12.70
2019-05-25T11:02:34.117Z,13.90
2019-05-25T11:04:34.102Z,12.30
2019-05-25T11:06:34.976Z,13.80
2019-05-25T11:08:34.059Z,13.10
2019-05-25T11:10:34.037Z,14.00
2019-05-25T11:12:34.011Z,11.30
2019-05-25T11:14:33.973Z,12.30
2019-05-25T11:16:33.965Z,12.40
2019-05-25T11:18:33.965Z,12.40
2019-05-25T11:20:33.917Z,11.30
2019-05-25T11:22:33.887Z,10.50
2019-05-25T11:24:33.873Z,10.40
2019-05-25T11:26:33.848Z,10.40
2019-05-25T11:28:33.828Z,9.70
2019-05-25T11:30:33.818Z,9.20
2019-05-25T11:32:33.781Z,8.90
2019-05-25T11:34:33.784Z,10.50
2019-05-25T11:36:33.734Z,10.70
2019-05-25T11:38:33.711Z,9.80
2019-05-25T11:40:33.711Z,12.60
2019-05-25T11:42:33.666Z,12.80
2019-05-25T11:44:33.652Z,11.30
2019-05-25T11:46:33.637Z,11.90
2019-05-25T11:48:33.602Z,9.20
2019-05-25T11:50:33.581Z,9.30
2019-05-25T11:52:33.575Z,9.50
2019-05-25T11:54:33.541Z,9.70
2019-05-25T11:56:33.531Z,10.00
2019-05-25T11:58:46.607Z,11.10
2019-05-25T12:00:34.486Z,10.00
2019-05-25T12:02:33.451Z,11.00
2019-05-25T12:04:33.450Z,12.40
2019-05-25T12:06:33.408Z,10.10
2019-05-25T12:08:33.409Z,9.50
2019-05-25T12:10:33.375Z,12.30
2019-05-25T12:12:33.347Z,9.90
2019-05-25T12:14:33.335Z,10.20
2019-05-25T12:16:33.364Z,10.20
2019-05-25T12:18:33.296Z,10.00
2019-05-25T12:20:33.259Z,9.60
2019-05-25T12:22:33.240Z,9.90
2019-05-25T12:24:33.225Z,10.10
2019-05-25T12:26:33.191Z,9.70
2019-05-25T12:28:33.181Z,9.10
2019-05-25T12:30:40.724Z,9.50
2019-05-25T12:32:34.132Z,10.70
2019-05-25T12:34:33.108Z,10.60
2019-05-25T12:36:33.110Z,12.40
2019-05-25T12:38:33.070Z,10.10
2019-05-25T12:40:33.048Z,10.80
2019-05-25T12:42:33.106Z,10.00
2019-05-25T12:44:34.454Z,9.10
2019-05-25T12:46:32.987Z,9.40
2019-05-25T12:48:32.955Z,9.60
2019-05-25T12:50:32.932Z,10.10
2019-05-25T12:52:32.926Z,9.00
2019-05-25T12:54:32.898Z,9.60
2019-05-25T12:56:32.875Z,9.30
2019-05-25T12:58:32.879Z,10.10
2019-05-25T13:00:32.826Z,8.80
2019-05-25T13:02:32.802Z,10.70
2019-05-25T13:04:32.788Z,10.10
2019-05-25T13:06:32.758Z,9.70
2019-05-25T13:08:32.737Z,9.50
2019-05-25T13:10:32.748Z,10.30
2019-05-25T13:12:32.695Z,8.80
2019-05-25T13:14:32.683Z,8.70
2019-05-25T13:16:32.663Z,8.10
2019-05-25T13:18:32.628Z,10.00
2019-05-25T13:20:32.609Z,9.90
2019-05-25T13:22:32.600Z,12.30
2019-05-25T13:24:32.570Z,9.50
2019-05-25T13:26:32.625Z,11.10
2019-05-25T13:28:32.517Z,10.00
2019-05-25T13:30:32.497Z,9.90
2019-05-25T13:32:32.510Z,9.80
2019-05-25T13:34:32.458Z,13.00
2019-05-25T13:36:32.451Z,11.10
2019-05-25T13:38:32.428Z,12.50
2019-05-25T13:40:32.396Z,10.40
2019-05-25T13:42:32.385Z,12.00
2019-05-25T13:44:32.354Z,10.00
2019-05-25T13:46:32.321Z,9.80
2019-05-25T13:48:32.319Z,10.50
2019-05-25T13:50:32.283Z,8.50
2019-05-25T13:52:32.270Z,8.70
2019-05-25T13:54:32.253Z,9.30
2019-05-25T13:56:32.213Z,9.60
2019-05-25T13:58:32.197Z,11.50
2019-05-25T14:00:32.182Z,8.70
2019-05-25T14:02:32.154Z,12.00
2019-05-25T14:04:32.147Z,9.70
2019-05-25T14:06:32.121Z,9.10
2019-05-25T14:08:32.084Z,10.10
2019-05-25T14:10:32.069Z,8.60
2019-05-25T14:12:32.051Z,8.50
2019-05-25T14:14:32.023Z,9.90
2019-05-25T14:16:32.022Z,8.90
2019-05-25T14:18:32.009Z,10.00
2019-05-25T14:20:31.970Z,10.30
2019-05-25T14:22:31.937Z,12.70
2019-05-25T14:24:31.919Z,9.10
2019-05-25T14:26:31.895Z,11.10
2019-05-25T14:28:31.891Z,7.80
2019-05-25T14:30:31.843Z,11.20
2019-05-25T14:32:31.825Z,9.40
2019-05-25T14:34:31.814Z,7.00
2019-05-25T14:36:31.779Z,8.10
2019-05-25T14:38:31.760Z,7.50
2019-05-25T14:40:31.751Z,7.30
2019-05-25T14:42:31.739Z,4.70
2019-05-25T14:44:31.709Z,7.10
2019-05-25T14:46:31.674Z,5.40
2019-05-25T14:48:31.697Z,6.00
2019-05-25T14:50:31.627Z,4.40
2019-05-25T14:52:31.617Z,6.10
2019-05-25T14:54:31.587Z,5.10
2019-05-25T14:56:31.565Z,8.40
2019-05-25T14:58:31.606Z,4.50
2019-05-25T15:00:31.520Z,5.10
2019-05-25T15:02:31.512Z,5.30
2019-05-25T15:04:31.491Z,3.90
2019-05-25T15:06:31.457Z,4.80
2019-05-25T15:08:31.434Z,6.70
2019-05-25T15:10:31.428Z,4.50
2019-05-25T15:12:31.395Z,6.10
2019-05-25T15:14:31.365Z,6.20
2019-05-25T15:16:31.358Z,5.80
2019-05-25T15:18:31.326Z,6.10
2019-05-25T15:20:31.318Z,5.10
2019-05-25T15:22:31.969Z,5.30
2019-05-25T15:24:31.262Z,5.80
2019-05-25T15:26:31.249Z,6.60
2019-05-25T15:28:31.214Z,5.20
2019-05-25T15:30:31.195Z,5.60
2019-05-25T15:32:31.184Z,5.50
2019-05-25T15:34:31.150Z,5.00
2019-05-25T15:36:31.137Z,5.80
2019-05-25T15:38:31.123Z,6.80
2019-05-25T15:40:31.099Z,6.30
2019-05-25T15:42:31.064Z,6.60
2019-05-25T15:44:31.048Z,4.10
2019-05-25T15:46:31.279Z,6.60
2019-05-25T15:48:31.139Z,6.20
2019-05-25T15:50:31.094Z,6.30
2019-05-25T15:52:31.006Z,6.90
2019-05-25T15:54:31.013Z,7.20
2019-05-25T15:56:30.966Z,5.20
2019-05-25T15:58:30.924Z,4.90
2019-05-25T16:00:30.909Z,5.70
2019-05-25T16:02:36.550Z,6.20
2019-05-25T16:04:31.848Z,4.50
2019-05-25T16:06:30.814Z,6.10
2019-05-25T16:08:30.800Z,5.60
2019-05-25T16:10:30.778Z,5.40
2019-05-25T16:12:30.740Z,4.90
2019-05-25T16:14:30.745Z,4.50
2019-05-25T16:16:30.706Z,5.40
2019-05-25T16:18:30.677Z,5.30
2019-05-25T16:20:30.676Z,5.90
2019-05-25T16:22:30.638Z,4.50
2019-05-25T16:24:30.670Z,4.60
2019-05-25T16:26:44.940Z,4.40
2019-05-25T16:28:31.574Z,4.10
2019-05-25T16:30:31.603Z,4.70
2019-05-25T16:32:30.541Z,4.50
2019-05-25T16:34:30.525Z,8.40
2019-05-25T16:36:30.549Z,3.90
2019-05-25T16:38:30.470Z,3.70
2019-05-25T16:40:30.525Z,5.10
2019-05-25T16:42:32.018Z,6.10
2019-05-25T16:44:30.405Z,8.10
2019-05-25T16:46:30.429Z,5.80
2019-05-25T16:48:30.374Z,6.60
2019-05-25T16:50:30.331Z,6.00
2019-05-25T16:52:31.388Z,6.90
2019-05-25T16:54:32.396Z,6.10
2019-05-25T16:56:30.568Z,7.20
2019-05-25T16:58:30.245Z,8.40
2019-05-25T17:00:30.253Z,5.60
2019-05-25T17:02:30.215Z,6.50
2019-05-25T17:04:30.194Z,6.20
2019-05-25T17:06:30.161Z,7.10
2019-05-25T17:08:30.163Z,5.20
2019-05-25T17:10:30.175Z,6.20
2019-05-25T17:12:30.115Z,5.60
2019-05-25T17:14:30.069Z,5.10
2019-05-25T17:16:30.058Z,6.40
2019-05-25T17:18:30.046Z,4.80
2019-05-25T17:20:30.030Z,5.80
2019-05-25T17:22:30.000Z,5.20
2019-05-25T17:24:30.004Z,5.40
2019-05-25T17:26:29.968Z,4.80
2019-05-25T17:28:29.930Z,6.70
2019-05-25T17:30:29.896Z,5.80
2019-05-25T17:32:29.871Z,5.10
2019-05-25T17:34:29.867Z,8.70
2019-05-25T17:36:29.838Z,8.50
2019-05-25T17:38:29.828Z,4.70
2019-05-25T17:40:29.783Z,3.40
2019-05-25T17:42:29.773Z,4.10
2019-05-25T17:44:29.761Z,4.50
2019-05-25T17:46:29.715Z,4.80
2019-05-25T17:48:29.727Z,6.10
2019-05-25T17:50:29.715Z,5.90
2019-05-25T17:52:29.660Z,4.40
2019-05-25T17:54:29.635Z,5.60
2019-05-25T17:56:29.622Z,5.30
2019-05-25T17:58:29.607Z,5.00
2019-05-25T18:00:29.576Z,4.70
2019-05-25T18:02:29.559Z,5.10
2019-05-25T18:04:29.534Z,5.80
2019-05-25T18:06:29.499Z,3.80
2019-05-25T18:08:29.487Z,5.70
2019-05-25T18:10:29.472Z,6.30
2019-05-25T18:12:29.495Z,5.60
2019-05-25T18:14:29.433Z,5.40
2019-05-25T18:16:29.409Z,4.90
2019-05-25T18:18:29.407Z,6.00
2019-05-25T18:20:29.347Z,6.10
2019-05-25T18:22:29.340Z,5.40
2019-05-25T18:24:29.295Z,3.90
2019-05-25T18:26:29.352Z,4.90
2019-05-25T18:28:29.268Z,4.60
2019-05-25T18:30:29.333Z,4.90
2019-05-25T18:32:29.217Z,5.80
2019-05-25T18:36:01.759Z,6.20
